createdAt,value
2023-01-02T00:02:10.030Z,100.00
2023-01-02T00:04:36.467Z,100.00
2023-01-02T00:07:02.943Z,100.00
2023-01-02T00:09:29.341Z,99.97
2023-01-02T00:11:57.028Z,99.76
2023-01-02T00:14:23.427Z,99.68
2023-01-02T00:16:49.832Z,100.00
2023-01-02T00:19:16.184Z,100.00
2023-01-02T00:21:42.569Z,100.00
2023-01-02T00:24:09.061Z,100.00
2023-01-02T00:26:35.482Z,100.00
2023-01-02T00:29:02.263Z,99.97
2023-01-02T00:31:28.893Z,100.00
2023-01-02T00:33:55.569Z,99.76
2023-01-02T00:36:21.991Z,100.00
2023-01-02T00:38:48.363Z,100.00
2023-01-02T00:41:16.866Z,99.99
2023-01-02T00:43:43.493Z,99.89
2023-01-02T00:46:12.242Z,99.81
2023-01-02T00:48:40.177Z,99.76
2023-01-02T00:51:06.788Z,99.94
2023-01-02T00:53:34.803Z,99.91
2023-01-02T00:56:01.207Z,99.74
2023-01-02T00:58:27.892Z,99.08
2023-01-02T01:00:54.317Z,98.93
2023-01-02T01:03:20.754Z,98.61
2023-01-02T01:05:47.165Z,98.55
2023-01-02T01:08:13.661Z,98.51
2023-01-02T01:10:40.121Z,98.33
2023-01-02T01:13:06.873Z,98.45
2023-01-02T01:15:34.593Z,98.61
2023-01-02T01:18:01.354Z,99.11
2023-01-02T01:20:27.788Z,99.18
2023-01-02T01:22:54.213Z,99.67
2023-01-02T01:25:21.055Z,99.78
2023-01-02T01:27:47.516Z,100.00
2023-01-02T01:30:14.039Z,100.00
2023-01-02T01:32:40.522Z,100.00
2023-01-02T01:35:07.556Z,100.00
2023-01-02T01:37:33.941Z,100.00
2023-01-02T01:40:00.331Z,100.00
2023-01-02T01:42:34.470Z,100.00
2023-01-02T01:45:01.762Z,100.00
2023-01-02T01:47:38.794Z,100.00
2023-01-02T01:50:08.156Z,100.00
2023-01-02T01:52:37.993Z,100.00
2023-01-02T01:55:15.408Z,100.00
2023-01-02T01:57:49.743Z,100.00
2023-01-02T02:00:16.462Z,100.00
2023-01-02T02:02:46.701Z,100.00
2023-01-02T02:05:17.042Z,100.00
2023-01-02T02:07:51.731Z,100.00
2023-01-02T02:10:18.282Z,100.00
2023-01-02T02:12:44.710Z,100.00
2023-01-02T02:15:24.817Z,100.00
2023-01-02T02:18:01.681Z,100.00
2023-01-02T02:20:44.514Z,100.00
2023-01-02T02:23:26.023Z,100.00
2023-01-02T02:26:12.879Z,100.00
2023-01-02T02:29:17.943Z,100.00
2023-01-02T02:31:58.459Z,100.00
2023-01-02T02:34:46.053Z,100.00
2023-01-02T02:37:44.885Z,100.00
2023-01-02T02:40:59.576Z,100.00
2023-01-02T02:43:41.295Z,100.00
2023-01-02T02:46:14.885Z,100.00
2023-01-02T02:48:59.199Z,100.00
2023-01-02T02:51:41.674Z,100.00
2023-01-02T02:54:24.594Z,100.00
2023-01-02T02:56:52.943Z,100.00
2023-01-02T02:59:20.386Z,100.00
2023-01-02T03:01:47.162Z,100.00
2023-01-02T03:04:23.028Z,100.00
2023-01-02T03:07:35.626Z,100.00
2023-01-02T03:10:20.869Z,100.00
2023-01-02T03:13:07.947Z,100.00
2023-01-02T03:15:48.196Z,100.00
2023-01-02T03:18:39.343Z,100.00
2023-01-02T03:21:10.298Z,100.00
2023-01-02T03:23:46.227Z,100.00
2023-01-02T03:26:16.791Z,100.00
2023-01-02T03:28:46.988Z,100.00
2023-01-02T03:31:19.159Z,100.00
2023-01-02T03:33:54.301Z,100.00
2023-01-02T03:36:24.840Z,100.00
2023-01-02T03:39:02.345Z,100.00
2023-01-02T03:41:35.067Z,100.00
2023-01-02T03:44:03.522Z,100.00
2023-01-02T03:46:53.791Z,100.00
2023-01-02T03:49:29.266Z,100.00
2023-01-02T03:51:55.779Z,100.00
2023-01-02T03:54:22.513Z,100.00
2023-01-02T03:57:02.469Z,100.00
2023-01-02T04:00:01.274Z,100.00
2023-01-02T04:02:51.598Z,100.00
2023-01-02T04:05:31.867Z,100.00
2023-01-02T04:08:06.846Z,100.00
2023-01-02T04:10:37.078Z,100.00
2023-01-02T04:13:12.722Z,100.00
2023-01-02T04:15:41.790Z,100.00
2023-01-02T04:18:12.380Z,100.00
2023-01-02T04:20:44.277Z,100.00
2023-01-02T04:23:26.514Z,100.00
2023-01-02T04:25:59.486Z,100.00
2023-01-02T04:28:29.148Z,100.00
2023-01-02T04:31:07.833Z,100.00
2023-01-02T04:33:40.223Z,100.00
2023-01-02T04:36:08.761Z,100.00
2023-01-02T04:38:35.262Z,100.00
2023-01-02T04:41:02.766Z,100.00
2023-01-02T04:43:29.206Z,100.00
2023-01-02T04:45:55.848Z,100.00
2023-01-02T04:48:22.406Z,100.00
2023-01-02T04:50:48.935Z,100.00
2023-01-02T04:53:15.657Z,100.00
2023-01-02T04:55:42.330Z,100.00
2023-01-02T04:58:09.230Z,100.00
2023-01-02T05:00:37.238Z,100.00
2023-01-02T05:03:04.686Z,100.00
2023-01-02T05:05:31.910Z,100.00
2023-01-02T05:07:59.195Z,100.00
2023-01-02T05:10:25.614Z,100.00
2023-01-02T05:12:52.006Z,100.00
2023-01-02T05:15:18.836Z,100.00
2023-01-02T05:17:45.253Z,100.00
2023-01-02T05:20:13.107Z,100.00
2023-01-02T05:22:59.787Z,100.00
2023-01-02T05:25:31.859Z,100.00
2023-01-02T05:27:58.316Z,100.00
2023-01-02T05:30:25.242Z,100.00
2023-01-02T05:32:52.896Z,100.00
2023-01-02T05:35:19.519Z,100.00
2023-01-02T05:37:45.917Z,100.00
2023-01-02T05:40:13.008Z,100.00
2023-01-02T05:42:39.425Z,100.00
2023-01-02T05:45:06.400Z,100.00
2023-01-02T05:47:33.573Z,100.00
2023-01-02T05:50:00.055Z,100.00
2023-01-02T05:52:26.472Z,100.00
2023-01-02T05:54:52.928Z,100.00
2023-01-02T05:57:19.357Z,100.00
2023-01-02T05:59:45.770Z,100.00
2023-01-02T06:02:12.229Z,100.00
2023-01-02T06:04:38.846Z,100.00
2023-01-02T06:07:05.289Z,100.00
2023-01-02T06:09:31.722Z,100.00
2023-01-02T06:11:58.213Z,100.00
2023-01-02T06:14:25.010Z,100.00
2023-01-02T06:16:51.390Z,100.00
2023-01-02T06:19:17.823Z,100.00
2023-01-02T06:21:44.196Z,100.00
2023-01-02T06:24:10.690Z,100.00
2023-01-02T06:26:37.302Z,100.00
2023-01-02T06:29:04.514Z,100.00
2023-01-02T06:31:33.282Z,100.00
2023-01-02T06:34:01.412Z,100.00
2023-01-02T06:36:33.637Z,100.00
2023-01-02T06:39:00.320Z,100.00
2023-01-02T06:41:26.880Z,100.00
2023-01-02T06:43:54.029Z,100.00
2023-01-02T06:46:23.393Z,100.00
2023-01-02T06:48:50.220Z,100.00
2023-01-02T06:51:19.482Z,100.00
2023-01-02T06:53:46.065Z,100.00
2023-01-02T06:56:15.717Z,100.00
2023-01-02T06:58:42.159Z,100.00
2023-01-02T07:01:14.534Z,100.00
2023-01-02T07:03:41.265Z,100.00
2023-01-02T07:06:16.130Z,100.00
2023-01-02T07:08:43.235Z,100.00
2023-01-02T07:11:15.968Z,100.00
2023-01-02T07:13:46.108Z,100.00
2023-01-02T07:16:16.659Z,100.00
2023-01-02T07:18:43.389Z,100.00
2023-01-02T07:21:11.815Z,100.00
2023-01-02T07:23:38.742Z,100.00
2023-01-02T07:26:07.075Z,100.00
2023-01-02T07:28:34.913Z,100.00
2023-01-02T07:31:05.541Z,100.00
2023-01-02T07:33:32.985Z,100.00
2023-01-02T07:36:04.688Z,100.00
2023-01-02T07:38:31.921Z,100.00
2023-01-02T07:40:58.445Z,100.00
2023-01-02T07:43:25.790Z,100.00
2023-01-02T07:45:52.396Z,100.00
2023-01-02T07:48:19.168Z,100.00
2023-01-02T07:50:46.146Z,100.00
2023-01-02T07:53:12.881Z,100.00
2023-01-02T07:55:39.322Z,100.00
2023-01-02T07:58:07.005Z,100.00
2023-01-02T08:00:33.505Z,100.00
2023-01-02T08:03:00.963Z,100.00
2023-01-02T08:05:27.468Z,100.00
2023-01-02T08:07:53.897Z,100.00
2023-01-02T08:10:20.416Z,100.00
2023-01-02T08:12:46.798Z,100.00
2023-01-02T08:15:13.312Z,100.00
2023-01-02T08:17:41.205Z,100.00
2023-01-02T08:20:08.780Z,100.00
2023-01-02T08:22:35.287Z,100.00
2023-01-02T08:25:02.285Z,100.00
2023-01-02T08:27:29.393Z,100.00
2023-01-02T08:29:55.780Z,100.00
2023-01-02T08:32:22.207Z,100.00
2023-01-02T08:34:49.050Z,100.00
2023-01-02T08:37:15.474Z,100.00
2023-01-02T08:39:41.863Z,100.00
2023-01-02T08:42:08.987Z,100.00
2023-01-02T08:44:38.232Z,100.00
2023-01-02T08:47:05.604Z,100.00
2023-01-02T08:49:32.099Z,100.00
2023-01-02T08:51:58.526Z,100.00
2023-01-02T08:54:25.115Z,100.00
2023-01-02T08:56:51.593Z,100.00
2023-01-02T08:59:18.072Z,100.00
2023-01-02T09:01:44.999Z,100.00
2023-01-02T09:04:13.124Z,100.00
2023-01-02T09:06:40.939Z,100.00
2023-01-02T09:09:12.043Z,100.00
2023-01-02T09:11:43.898Z,100.00
2023-01-02T09:14:10.487Z,100.00
2023-01-02T09:16:38.149Z,100.00
2023-01-02T09:19:04.780Z,100.00
2023-01-02T09:21:31.209Z,100.00
2023-01-02T09:23:57.717Z,100.00
2023-01-02T09:26:24.304Z,100.00
2023-01-02T09:28:50.714Z,100.00
2023-01-02T09:31:17.959Z,100.00
2023-01-02T09:33:46.062Z,100.00
2023-01-02T09:36:15.211Z,100.00
2023-01-02T09:38:42.567Z,100.00
2023-01-02T09:41:27.687Z,100.00
2023-01-02T09:43:58.361Z,100.00
2023-01-02T09:46:45.785Z,100.00
2023-01-02T09:49:15.520Z,100.00
2023-01-02T09:51:43.757Z,100.00
2023-01-02T09:54:33.519Z,100.00
2023-01-02T09:57:12.907Z,100.00
2023-01-02T09:59:43.414Z,100.00
2023-01-02T10:02:37.231Z,100.00
2023-01-02T10:05:31.215Z,100.00
2023-01-02T10:07:57.485Z,100.00
2023-01-02T10:10:42.471Z,100.00
2023-01-02T10:13:23.816Z,100.00
2023-01-02T10:16:02.425Z,100.00
2023-01-02T10:18:37.254Z,100.00
2023-01-02T10:21:10.914Z,100.00
2023-01-02T10:23:41.938Z,100.00
2023-01-02T10:26:20.502Z,100.00
2023-01-02T10:28:46.798Z,100.00
2023-01-02T10:31:25.770Z,100.00
2023-01-02T10:33:52.095Z,100.00
2023-01-02T10:36:33.084Z,100.00
2023-01-02T10:39:05.948Z,100.00
2023-01-02T10:41:33.947Z,100.00
2023-01-02T10:44:19.588Z,100.00
2023-01-02T10:46:46.123Z,100.00
2023-01-02T10:49:12.564Z,100.00
2023-01-02T10:51:45.386Z,100.00
2023-01-02T10:54:12.291Z,100.00
2023-01-02T10:56:40.618Z,100.00
2023-01-02T10:59:24.510Z,100.00
2023-01-02T11:01:57.078Z,100.00
2023-01-02T11:04:28.633Z,100.00
2023-01-02T11:07:04.327Z,100.00
2023-01-02T11:09:33.469Z,100.00
2023-01-02T11:12:11.983Z,100.00
2023-01-02T11:14:38.924Z,100.00
2023-01-02T11:17:15.626Z,100.00
2023-01-02T11:19:48.590Z,100.00
2023-01-02T11:22:17.935Z,100.00
2023-01-02T11:24:59.832Z,100.00
2023-01-02T11:27:41.496Z,100.00
2023-01-02T11:30:21.232Z,100.00
2023-01-02T11:32:47.704Z,100.00
2023-01-02T11:35:37.000Z,100.00
2023-01-02T11:38:03.736Z,100.00
2023-01-02T11:40:32.017Z,100.00
2023-01-02T11:43:26.267Z,100.00
2023-01-02T11:45:53.107Z,100.00
2023-01-02T11:48:22.520Z,100.00
2023-01-02T11:50:50.347Z,100.00
2023-01-02T11:53:21.270Z,100.00
2023-01-02T11:55:54.063Z,100.00
2023-01-02T11:58:30.158Z,100.00
2023-01-02T12:01:09.267Z,100.00
2023-01-02T12:03:35.956Z,100.00
2023-01-02T12:06:31.939Z,100.00
2023-01-02T12:09:04.342Z,99.43
2023-01-02T12:11:57.165Z,98.86
2023-01-02T12:14:42.497Z,97.41
2023-01-02T12:17:11.718Z,97.03
2023-01-02T12:20:08.926Z,95.77
2023-01-02T12:23:10.777Z,95.84
2023-01-02T12:25:45.310Z,96.02
2023-01-02T12:28:33.733Z,95.51
2023-01-02T12:31:23.208Z,95.64
2023-01-02T12:34:19.232Z,97.14
2023-01-02T12:37:05.448Z,97.68
2023-01-02T12:39:53.039Z,98.26
2023-01-02T12:42:42.767Z,97.10
2023-01-02T12:45:54.516Z,97.75
2023-01-02T12:48:23.653Z,98.34
2023-01-02T12:51:09.571Z,97.95
2023-01-02T12:53:36.305Z,97.25
2023-01-02T12:56:29.632Z,96.63
2023-01-02T12:58:56.368Z,97.22
2023-01-02T13:01:33.187Z,96.78
2023-01-02T13:04:03.033Z,96.72
2023-01-02T13:06:46.863Z,97.30
2023-01-02T13:09:23.134Z,97.95
2023-01-02T13:11:59.650Z,97.65
2023-01-02T13:14:34.237Z,97.88
2023-01-02T13:17:40.614Z,97.86
2023-01-02T13:20:33.240Z,98.62
2023-01-02T13:23:11.726Z,98.76
2023-01-02T13:25:45.531Z,98.76
2023-01-02T13:28:13.379Z,98.54
2023-01-02T13:31:00.967Z,98.58
2023-01-02T13:33:42.769Z,98.40
2023-01-02T13:36:38.366Z,97.94
2023-01-02T13:39:18.198Z,98.30
2023-01-02T13:42:15.075Z,97.76
2023-01-02T13:44:45.753Z,97.68
2023-01-02T13:47:25.594Z,97.10
2023-01-02T13:50:07.995Z,96.13
2023-01-02T13:52:34.636Z,95.95
2023-01-02T13:55:25.099Z,95.94
2023-01-02T13:58:17.554Z,96.62
2023-01-02T14:00:55.068Z,96.60
2023-01-02T14:03:24.744Z,96.63
2023-01-02T14:06:01.423Z,96.15
2023-01-02T14:08:34.189Z,95.93
2023-01-02T14:11:17.015Z,95.65
2023-01-02T14:13:48.208Z,95.46
2023-01-02T14:16:30.292Z,94.83
2023-01-02T14:19:12.026Z,94.04
2023-01-02T14:21:56.136Z,94.52
2023-01-02T14:24:45.935Z,94.64
2023-01-02T14:27:15.165Z,94.41
2023-01-02T14:29:53.483Z,95.34
2023-01-02T14:32:27.513Z,95.84
2023-01-02T14:34:56.718Z,95.93
2023-01-02T14:37:45.711Z,96.10
2023-01-02T14:40:23.292Z,96.07
2023-01-02T14:43:15.303Z,96.56
2023-01-02T14:45:50.085Z,96.28
2023-01-02T14:48:26.925Z,96.25
2023-01-02T14:51:00.952Z,96.62
2023-01-02T14:53:39.569Z,97.30
2023-01-02T14:56:16.342Z,97.17
2023-01-02T14:58:48.265Z,97.01
2023-01-02T15:01:42.529Z,96.91
2023-01-02T15:04:24.999Z,96.35
2023-01-02T15:07:19.008Z,96.31
2023-01-02T15:09:47.175Z,96.98
2023-01-02T15:12:51.906Z,97.30
2023-01-02T15:15:24.071Z,97.10
2023-01-02T15:17:52.038Z,96.90
2023-01-02T15:20:24.351Z,96.91
2023-01-02T15:22:56.652Z,97.38
2023-01-02T15:25:37.853Z,97.24
2023-01-02T15:28:05.776Z,98.04
2023-01-02T15:30:40.887Z,97.90
2023-01-02T15:33:27.487Z,97.40
2023-01-02T15:35:58.637Z,97.48
2023-01-02T15:38:25.100Z,97.43
2023-01-02T15:40:54.355Z,97.81
2023-01-02T15:43:39.112Z,98.11
2023-01-02T15:46:06.010Z,98.91
2023-01-02T15:48:32.933Z,99.37
2023-01-02T15:51:00.078Z,99.42
2023-01-02T15:53:30.846Z,99.83
2023-01-02T15:55:58.429Z,100.00
2023-01-02T15:58:30.562Z,100.00
2023-01-02T16:01:16.071Z,100.00
2023-01-02T16:04:01.887Z,100.00
2023-01-02T16:06:44.574Z,100.00
2023-01-02T16:09:20.151Z,100.00
2023-01-02T16:11:50.198Z,100.00
2023-01-02T16:14:21.973Z,100.00
2023-01-02T16:17:01.820Z,100.00
2023-01-02T16:19:38.712Z,100.00
2023-01-02T16:22:20.347Z,100.00
2023-01-02T16:24:58.260Z,100.00
2023-01-02T16:27:31.967Z,100.00
2023-01-02T16:29:58.713Z,100.00
2023-01-02T16:32:30.749Z,100.00
2023-01-02T16:35:25.877Z,100.00
2023-01-02T16:37:55.131Z,100.00
2023-01-02T16:41:00.597Z,100.00
2023-01-02T16:43:13.614Z,100.00
2023-01-02T16:45:40.313Z,100.00
2023-01-02T16:48:12.140Z,100.00
2023-01-02T16:50:42.291Z,100.00
2023-01-02T16:53:11.038Z,100.00
2023-01-02T16:55:37.509Z,100.00
2023-01-02T16:58:03.956Z,100.00
2023-01-02T17:00:30.328Z,100.00
2023-01-02T17:02:57.069Z,100.00
2023-01-02T17:05:33.081Z,100.00
2023-01-02T17:07:59.963Z,100.00
2023-01-02T17:10:26.680Z,100.00
2023-01-02T17:12:53.387Z,100.00
2023-01-02T17:15:20.214Z,100.00
2023-01-02T17:17:46.739Z,100.00
2023-01-02T17:20:14.299Z,100.00
2023-01-02T17:22:40.894Z,100.00
2023-01-02T17:25:09.218Z,100.00
2023-01-02T17:27:35.790Z,100.00
2023-01-02T17:30:04.604Z,100.00
2023-01-02T17:32:31.410Z,100.00
2023-01-02T17:34:58.026Z,100.00
2023-01-02T17:37:25.216Z,100.00
2023-01-02T17:39:52.869Z,100.00
2023-01-02T17:42:20.144Z,100.00
2023-01-02T17:44:46.742Z,100.00
2023-01-02T17:50:00.773Z,100.00
2023-01-02T17:52:27.953Z,100.00
2023-01-02T17:54:56.694Z,100.00
2023-01-02T17:57:24.109Z,100.00
2023-01-02T17:59:51.313Z,100.00
2023-01-02T18:02:20.213Z,100.00
2023-01-02T18:04:52.760Z,100.00
2023-01-02T18:07:21.272Z,100.00
2023-01-02T18:10:07.988Z,100.00
2023-01-02T18:12:36.105Z,100.00
2023-01-02T18:15:10.173Z,100.00
2023-01-02T18:17:36.586Z,100.00
2023-01-02T18:20:10.062Z,100.00
2023-01-02T18:22:36.485Z,100.00
2023-01-02T18:25:19.744Z,100.00
2023-01-02T18:27:47.476Z,100.00
2023-01-02T18:30:21.968Z,100.00
2023-01-02T18:32:49.782Z,100.00
2023-01-02T18:38:24.004Z,100.00
2023-01-02T18:40:50.503Z,100.00
2023-01-02T18:43:35.402Z,100.00
2023-01-02T18:46:13.767Z,100.00
2023-01-02T18:48:40.261Z,100.00
2023-01-02T18:51:13.708Z,100.00
2023-01-02T18:53:44.266Z,100.00
2023-01-02T18:56:23.665Z,100.00
2023-01-02T18:59:13.409Z,100.00
2023-01-02T19:01:47.043Z,100.00
2023-01-02T19:04:27.281Z,100.00
2023-01-02T19:06:57.744Z,100.00
2023-01-02T19:09:34.497Z,100.00
2023-01-02T19:12:32.061Z,100.00
2023-01-02T19:15:01.963Z,100.00
2023-01-02T19:17:32.046Z,100.00
2023-01-02T19:19:59.928Z,100.00
2023-01-02T19:22:34.481Z,100.00
2023-01-02T19:25:18.142Z,100.00
2023-01-02T19:27:44.524Z,100.00
2023-01-02T19:30:29.359Z,100.00
2023-01-02T19:32:55.959Z,100.00
2023-01-02T19:35:25.645Z,100.00
2023-01-02T19:37:52.355Z,100.00
2023-01-02T19:40:22.449Z,100.00
2023-01-02T19:42:54.053Z,100.00
2023-01-02T19:45:26.169Z,100.00
2023-01-02T19:47:53.606Z,100.00
2023-01-02T19:50:25.723Z,100.00
2023-01-02T19:52:52.649Z,100.00
2023-01-02T19:55:19.383Z,100.00
2023-01-02T19:57:46.852Z,100.00
2023-01-02T20:00:15.576Z,100.00
2023-01-02T20:02:45.241Z,100.00
2023-01-02T20:05:16.261Z,100.00
2023-01-02T20:07:48.467Z,100.00
2023-01-02T20:10:15.438Z,100.00
2023-01-02T20:12:42.060Z,100.00
2023-01-02T20:15:35.017Z,100.00
2023-01-02T20:18:08.326Z,100.00
2023-01-02T20:20:35.451Z,100.00
2023-01-02T20:23:01.871Z,100.00
2023-01-02T20:25:28.761Z,100.00
2023-01-02T20:27:56.335Z,100.00
2023-01-02T20:30:25.383Z,100.00
2023-01-02T20:32:53.284Z,100.00
2023-01-02T20:35:19.744Z,100.00
2023-01-02T20:37:46.604Z,100.00
2023-01-02T20:40:13.184Z,100.00
2023-01-02T20:42:39.637Z,100.00
2023-01-02T20:45:06.981Z,100.00
2023-01-02T20:47:35.308Z,100.00
2023-01-02T20:50:04.492Z,100.00
2023-01-02T20:52:30.870Z,100.00
2023-01-02T20:54:57.391Z,100.00
2023-01-02T20:57:23.972Z,100.00
2023-01-02T20:59:50.458Z,100.00
2023-01-02T21:02:16.936Z,100.00
2023-01-02T21:04:43.961Z,100.00
2023-01-02T21:07:10.330Z,100.00
2023-01-02T21:09:36.822Z,100.00
2023-01-02T21:12:03.469Z,100.00
2023-01-02T21:14:35.479Z,100.00
2023-01-02T21:17:03.710Z,100.00
2023-01-02T21:19:30.070Z,100.00
2023-01-02T21:21:56.459Z,100.00
2023-01-02T21:24:22.853Z,100.00
2023-01-02T21:26:49.306Z,100.00
2023-01-02T21:29:15.714Z,100.00
2023-01-02T21:31:42.277Z,100.00
2023-01-02T21:34:08.851Z,100.00
2023-01-02T21:36:36.967Z,100.00
2023-01-02T21:39:03.518Z,100.00
2023-01-02T21:41:48.575Z,100.00
2023-01-02T21:44:14.984Z,100.00
2023-01-02T21:46:41.540Z,100.00
2023-01-02T21:49:08.084Z,100.00
2023-01-02T21:51:35.817Z,100.00
2023-01-02T21:54:02.192Z,100.00
2023-01-02T21:56:28.627Z,100.00
2023-01-02T21:58:57.658Z,100.00
2023-01-02T22:01:24.431Z,100.00
2023-01-02T22:03:50.916Z,100.00
2023-01-02T22:06:18.110Z,100.00
2023-01-02T22:08:44.519Z,100.00
2023-01-02T22:11:29.348Z,100.00
2023-01-02T22:13:55.957Z,100.00
2023-01-02T22:16:22.690Z,100.00
2023-01-02T22:18:50.498Z,100.00
2023-01-02T22:21:16.964Z,100.00
2023-01-02T22:23:43.380Z,100.00
2023-01-02T22:26:09.794Z,100.00
2023-01-02T22:28:37.100Z,100.00
2023-01-02T22:31:03.652Z,100.00
2023-01-02T22:33:30.033Z,100.00
2023-01-02T22:35:56.451Z,100.00
2023-01-02T22:38:23.839Z,100.00
2023-01-02T22:40:50.381Z,100.00
2023-01-02T22:43:24.404Z,100.00
2023-01-02T22:45:53.327Z,100.00
2023-01-02T22:48:26.274Z,100.00
2023-01-02T22:50:56.480Z,100.00
2023-01-02T22:53:34.684Z,100.00
2023-01-02T22:56:06.225Z,100.00
2023-01-02T22:58:32.607Z,100.00
2023-01-02T23:01:04.544Z,100.00
2023-01-02T23:03:40.922Z,100.00
2023-01-02T23:06:07.548Z,100.00
2023-01-02T23:08:33.979Z,100.00
2023-01-02T23:11:00.679Z,100.00
2023-01-02T23:13:27.445Z,100.00
2023-01-02T23:16:12.548Z,100.00
2023-01-02T23:18:58.091Z,100.00
2023-01-02T23:21:26.562Z,100.00
2023-01-02T23:23:53.911Z,100.00
2023-01-02T23:26:21.921Z,100.00
2023-01-02T23:31:37.577Z,100.00
2023-01-02T23:34:04.200Z,100.00
2023-01-02T23:36:31.818Z,100.00
2023-01-02T23:38:58.169Z,100.00
2023-01-02T23:41:24.570Z,100.00
2023-01-02T23:43:51.547Z,100.00
2023-01-02T23:46:18.199Z,100.00
2023-01-02T23:48:44.701Z,100.00
2023-01-02T23:51:11.089Z,100.00
2023-01-02T23:53:37.490Z,100.00
2023-01-02T23:56:16.888Z,100.00
2023-01-02T23:58:43.710Z,100.00
